Terminal Aerodrome Forecast
Issued by NWS

Home | Current Version | Previous Version | Text Only | Print | Product List | Glossary On
Versions: 1 2 3 4 5 6 7 8 9 10 11 12 13 14 15 16 17 18 19 20 21 22 23 24 25 26
000
FTUS43 KJKL 050320 AAB
TAFSJS
TAF AMD
KSJS 050320Z 0503/0524 00000KT 1/4SM FG OVC003
     FM050600 00000KT 4SM BR SCT005 BKN150
     FM051000 VRB03KT 6SM -RA BR OVC040
     FM051200 VRB03KT 4SM -SHRA BR OVC025
     FM051500 VRB03KT 4SM -SHRA BR OVC015
     FM051900 VRB03KT P6SM -SHRA OVC020=

USA.gov is the U.S. government's official web portal to all federal, state and local government web resources and services.